createdAt,value
2019-02-20T00:02:23.269Z,9.37
2019-02-20T00:04:52.981Z,9.39
2019-02-20T00:07:23.820Z,9.38
2019-02-20T00:09:53.247Z,9.39
2019-02-20T00:12:23.734Z,9.36
2019-02-20T00:14:53.240Z,9.36
2019-02-20T00:17:22.908Z,9.37
2019-02-20T00:19:52.564Z,9.22
2019-02-20T00:22:23.351Z,9.22
2019-02-20T00:24:52.723Z,9.21
2019-02-20T00:27:23.484Z,9.13
2019-02-20T00:29:54.720Z,9.13
2019-02-20T00:32:24.645Z,9.22
2019-02-20T00:34:54.153Z,9.24
2019-02-20T00:37:23.700Z,9.30
2019-02-20T00:39:54.575Z,9.26
2019-02-20T00:42:26.186Z,9.26
2019-02-20T00:45:04.057Z,9.22
2019-02-20T00:47:53.152Z,9.14
2019-02-20T00:50:23.699Z,9.17
2019-02-20T00:52:58.404Z,9.25
2019-02-20T00:55:30.124Z,9.34
2019-02-20T00:57:59.585Z,9.38
2019-02-20T01:00:30.161Z,9.33
2019-02-20T01:03:00.039Z,9.33
2019-02-20T01:05:31.330Z,9.32
2019-02-20T01:08:00.830Z,9.36
2019-02-20T01:10:30.510Z,9.28
2019-02-20T01:13:00.011Z,9.23
2019-02-20T01:15:31.886Z,9.21
2019-02-20T01:18:02.641Z,9.26
2019-02-20T01:20:32.482Z,9.39
2019-02-20T01:23:02.990Z,9.41
2019-02-20T01:25:32.603Z,9.37
2019-02-20T01:28:03.344Z,9.33
2019-02-20T01:30:33.737Z,9.27
2019-02-20T01:33:06.953Z,9.27
2019-02-20T01:35:38.524Z,9.25
2019-02-20T01:38:09.052Z,9.24
2019-02-20T01:40:38.706Z,9.25
2019-02-20T01:43:09.320Z,9.27
2019-02-20T01:45:39.711Z,9.23
2019-02-20T01:48:09.368Z,9.22
2019-02-20T01:50:38.821Z,9.27
2019-02-20T01:53:10.648Z,9.21
2019-02-20T01:55:39.811Z,9.13
2019-02-20T01:58:10.531Z,9.23
2019-02-20T02:00:39.948Z,9.18
2019-02-20T02:03:09.558Z,9.19
2019-02-20T02:05:40.804Z,9.19
2019-02-20T02:08:10.449Z,9.18
2019-02-20T02:10:40.130Z,9.23
2019-02-20T02:13:10.509Z,9.32
2019-02-20T02:15:41.487Z,9.26
2019-02-20T02:18:11.250Z,9.24
2019-02-20T02:20:41.766Z,9.22
2019-02-20T02:23:19.662Z,9.25
2019-02-20T02:25:42.597Z,9.23
2019-02-20T02:28:16.074Z,9.25
2019-02-20T02:30:47.649Z,9.15
2019-02-20T02:33:17.279Z,9.02
2019-02-20T02:35:48.016Z,8.97
2019-02-20T02:38:18.602Z,9.04
2019-02-20T02:40:48.942Z,9.10
2019-02-20T02:43:19.848Z,9.09
2019-02-20T02:45:49.340Z,9.05
2019-02-20T02:48:18.835Z,9.00
2019-02-20T02:50:48.222Z,8.92
2019-02-20T02:53:17.895Z,8.96
2019-02-20T02:55:49.093Z,8.93
2019-02-20T02:58:19.786Z,8.94
2019-02-20T03:00:54.182Z,9.04
2019-02-20T03:03:26.049Z,9.13
2019-02-20T03:05:57.262Z,9.11
2019-02-20T03:08:26.628Z,9.12
2019-02-20T03:10:56.372Z,9.13
2019-02-20T03:13:25.790Z,9.15
2019-02-20T03:15:55.284Z,9.19
2019-02-20T03:18:24.902Z,9.21
2019-02-20T03:20:54.306Z,9.22
2019-02-20T03:23:23.705Z,9.15
2019-02-20T03:25:53.326Z,9.26
2019-02-20T03:28:22.697Z,9.24
2019-02-20T03:30:54.649Z,9.24
2019-02-20T03:33:25.535Z,9.21
2019-02-20T03:35:54.916Z,9.18
2019-02-20T03:38:30.247Z,9.14
2019-02-20T03:40:55.849Z,9.03
2019-02-20T03:43:25.202Z,8.95
2019-02-20T03:45:56.670Z,8.84
2019-02-20T03:48:26.409Z,8.90
2019-02-20T03:50:55.764Z,8.98
2019-02-20T03:53:28.770Z,8.73
2019-02-20T03:56:00.581Z,8.81
2019-02-20T03:58:33.316Z,8.81
2019-02-20T04:01:02.934Z,8.83
2019-02-20T04:03:34.169Z,8.88
2019-02-20T04:06:03.614Z,8.84
2019-02-20T04:08:34.161Z,8.86
2019-02-20T04:11:03.634Z,8.87
2019-02-20T04:13:33.135Z,8.85
2019-02-20T04:16:02.526Z,8.76
2019-02-20T04:18:33.768Z,8.84
2019-02-20T04:21:03.153Z,8.84
2019-02-20T04:23:32.576Z,8.86
2019-02-20T04:26:02.434Z,8.91
2019-02-20T04:28:33.057Z,8.97
2019-02-20T04:31:02.496Z,8.95
2019-02-20T04:33:31.961Z,8.89
2019-02-20T04:36:01.357Z,8.88
2019-02-20T04:38:30.769Z,8.89
2019-02-20T04:41:02.126Z,8.83
2019-02-20T04:43:32.654Z,8.79
2019-02-20T04:46:03.855Z,8.78
2019-02-20T04:48:33.642Z,8.84
2019-02-20T04:51:03.088Z,8.81
2019-02-20T04:53:32.469Z,8.84
2019-02-20T04:56:03.931Z,8.86
2019-02-20T04:58:33.334Z,8.97
2019-02-20T05:01:02.757Z,8.97
2019-02-20T05:03:34.050Z,8.89
2019-02-20T05:06:03.432Z,8.67
2019-02-20T05:08:34.294Z,8.61
2019-02-20T05:11:03.912Z,8.78
2019-02-20T05:13:33.631Z,8.85
2019-02-20T05:16:03.039Z,8.72
2019-02-20T05:18:33.674Z,8.66
2019-02-20T05:21:03.121Z,8.68
2019-02-20T05:23:33.520Z,8.78
2019-02-20T05:26:04.133Z,8.81
2019-02-20T05:28:33.519Z,8.93
2019-02-20T05:31:04.706Z,8.85
2019-02-20T05:33:35.749Z,8.80
2019-02-20T05:36:05.143Z,8.76
2019-02-20T05:38:34.527Z,8.75
2019-02-20T05:41:04.060Z,8.82
2019-02-20T05:43:33.488Z,8.81
2019-02-20T05:46:02.874Z,8.75
2019-02-20T05:48:32.486Z,8.80
2019-02-20T05:51:02.237Z,8.77
2019-02-20T05:53:33.123Z,8.74
2019-02-20T05:56:02.758Z,8.84
2019-02-20T05:58:32.141Z,8.86
2019-02-20T06:01:01.585Z,8.60
2019-02-20T06:03:31.112Z,8.69
2019-02-20T06:06:00.509Z,8.79
2019-02-20T06:08:29.966Z,8.83
2019-02-20T06:11:02.036Z,8.70
2019-02-20T06:13:31.408Z,8.70
2019-02-20T06:16:00.806Z,8.61
2019-02-20T06:18:30.300Z,8.58
2019-02-20T06:20:59.734Z,8.67
2019-02-20T06:23:32.727Z,8.80
2019-02-20T06:26:03.583Z,8.75
2019-02-20T06:28:33.188Z,8.60
2019-02-20T06:31:02.617Z,8.62
2019-02-20T06:33:32.227Z,8.73
2019-02-20T06:36:01.596Z,8.72
2019-02-20T06:38:31.002Z,8.73
2019-02-20T06:41:00.456Z,8.76
2019-02-20T06:43:29.826Z,8.71
2019-02-20T06:45:59.266Z,8.70
2019-02-20T06:48:30.750Z,8.67
2019-02-20T06:51:01.646Z,8.74
2019-02-20T06:53:31.146Z,8.90
2019-02-20T06:56:00.886Z,8.95
2019-02-20T06:58:31.294Z,8.87
2019-02-20T07:01:02.553Z,8.79
2019-02-20T07:03:35.746Z,8.90
2019-02-20T07:06:41.263Z,8.82
2019-02-20T07:10:07.493Z,8.82
2019-02-20T07:12:51.928Z,8.88
2019-02-20T07:15:53.689Z,8.81
2019-02-20T07:18:58.500Z,8.67
2019-02-20T07:22:00.752Z,8.77
2019-02-20T07:25:03.087Z,8.81
2019-02-20T07:28:00.067Z,8.85
2019-02-20T07:30:29.520Z,8.94
2019-02-20T07:33:00.015Z,8.95
2019-02-20T07:35:29.454Z,8.94
2019-02-20T07:37:58.855Z,9.02
2019-02-20T07:40:28.701Z,9.05
2019-02-20T07:43:00.249Z,8.99
2019-02-20T07:45:31.418Z,8.97
2019-02-20T07:48:00.809Z,8.98
2019-02-20T07:50:30.268Z,9.14
2019-02-20T07:53:00.724Z,9.19
2019-02-20T07:55:31.244Z,9.36
2019-02-20T07:58:02.836Z,9.42
2019-02-20T08:00:32.239Z,9.29
2019-02-20T08:03:01.738Z,9.27
2019-02-20T08:05:32.753Z,9.38
2019-02-20T08:08:02.159Z,9.45
2019-02-20T08:10:31.542Z,9.32
2019-02-20T08:13:03.003Z,9.44
2019-02-20T08:15:32.382Z,9.38
2019-02-20T08:18:03.296Z,9.39
2019-02-20T08:20:34.071Z,9.58
2019-02-20T08:23:03.551Z,9.57
2019-02-20T08:25:32.972Z,9.51
2019-02-20T08:28:02.599Z,9.58
2019-02-20T08:30:32.015Z,9.66
2019-02-20T08:33:03.126Z,9.73
2019-02-20T08:35:35.223Z,9.65
2019-02-20T08:38:04.566Z,9.59
2019-02-20T08:40:34.023Z,9.74
2019-02-20T08:43:08.058Z,9.70
2019-02-20T08:45:37.438Z,9.73
2019-02-20T08:48:06.860Z,9.68
2019-02-20T08:50:36.435Z,9.74
2019-02-20T08:53:05.807Z,9.59
2019-02-20T08:55:36.187Z,9.58
2019-02-20T08:58:06.342Z,9.69
2019-02-20T09:00:38.134Z,9.87
2019-02-20T09:03:07.521Z,9.98
2019-02-20T09:05:37.170Z,10.01
2019-02-20T09:08:08.062Z,9.90
2019-02-20T09:10:37.545Z,9.84
2019-02-20T09:13:09.012Z,9.96
2019-02-20T09:15:38.403Z,10.06
2019-02-20T09:18:07.929Z,10.04
2019-02-20T09:20:37.609Z,9.97
2019-02-20T09:23:10.849Z,10.05
2019-02-20T09:25:41.850Z,10.03
2019-02-20T09:28:11.670Z,9.99
2019-02-20T09:30:41.125Z,10.14
2019-02-20T09:33:10.510Z,10.12
2019-02-20T09:35:40.289Z,10.29
2019-02-20T09:38:10.534Z,10.33
2019-02-20T09:40:42.560Z,10.42
2019-02-20T09:43:12.205Z,10.22
2019-02-20T09:45:43.897Z,10.35
2019-02-20T09:48:12.805Z,10.41
2019-02-20T09:50:42.655Z,10.53
2019-02-20T09:53:12.189Z,10.54
2019-02-20T09:55:50.932Z,10.49
2019-02-20T09:58:14.383Z,10.62
2019-02-20T10:00:44.101Z,10.70
2019-02-20T10:03:13.952Z,10.72
2019-02-20T10:05:45.159Z,10.66
2019-02-20T10:08:14.542Z,10.73
2019-02-20T10:10:47.689Z,10.82
2019-02-20T10:13:18.696Z,10.84
2019-02-20T10:15:49.540Z,10.88
2019-02-20T10:18:19.128Z,10.81
2019-02-20T10:20:48.562Z,10.74
2019-02-20T10:23:20.025Z,10.70
2019-02-20T10:25:50.563Z,10.76
2019-02-20T10:28:21.661Z,10.60
2019-02-20T10:30:53.317Z,10.75
2019-02-20T10:33:23.679Z,10.76
2019-02-20T10:35:54.979Z,10.71
2019-02-20T10:38:27.263Z,10.77
2019-02-20T10:40:56.849Z,10.88
2019-02-20T10:43:26.578Z,11.04
2019-02-20T10:45:58.294Z,11.04
2019-02-20T10:48:29.850Z,11.03
2019-02-20T10:50:59.723Z,11.24
2019-02-20T10:53:29.264Z,11.40
2019-02-20T10:55:58.787Z,11.46
2019-02-20T10:58:28.273Z,11.38
2019-02-20T11:00:57.722Z,11.38
2019-02-20T11:03:29.013Z,11.49
2019-02-20T11:05:58.545Z,11.57
2019-02-20T11:08:28.296Z,11.42
2019-02-20T11:10:59.371Z,11.62
2019-02-20T11:13:29.091Z,11.67
2019-02-20T11:15:58.960Z,11.65
2019-02-20T11:18:28.399Z,11.75
2019-02-20T11:20:57.828Z,11.74
2019-02-20T11:23:28.315Z,11.74
2019-02-20T11:25:57.713Z,11.71
2019-02-20T11:28:28.876Z,11.51
2019-02-20T11:30:59.561Z,11.52
2019-02-20T11:33:29.151Z,11.61
2019-02-20T11:35:58.977Z,11.53
2019-02-20T11:38:30.913Z,11.45
2019-02-20T11:41:00.737Z,11.56
2019-02-20T11:43:30.961Z,11.46
2019-02-20T11:46:00.818Z,11.65
2019-02-20T11:48:30.711Z,11.55
2019-02-20T11:51:01.055Z,11.30
2019-02-20T11:53:37.136Z,11.36
2019-02-20T11:56:04.632Z,11.64
2019-02-20T11:58:35.969Z,11.72
2019-02-20T12:01:06.057Z,11.81
2019-02-20T12:03:36.033Z,11.82
2019-02-20T12:06:05.621Z,11.78
2019-02-20T12:08:36.092Z,11.90
2019-02-20T12:11:05.851Z,11.96
2019-02-20T12:13:38.097Z,11.76
2019-02-20T12:16:09.558Z,11.91
2019-02-20T12:18:39.162Z,11.66
2019-02-20T12:21:08.874Z,11.64
2019-02-20T12:23:38.441Z,11.86
2019-02-20T12:26:07.998Z,12.05
2019-02-20T12:28:37.686Z,12.11
2019-02-20T12:31:08.082Z,11.88
2019-02-20T12:33:37.441Z,11.87
2019-02-20T12:36:07.867Z,11.88
2019-02-20T12:38:37.346Z,11.98
2019-02-20T12:41:08.293Z,12.04
2019-02-20T12:43:41.713Z,12.07
2019-02-20T12:46:14.301Z,12.13
2019-02-20T12:48:43.799Z,12.12
2019-02-20T12:51:14.770Z,11.92
2019-02-20T12:53:44.454Z,12.03
2019-02-20T12:56:14.482Z,12.22
2019-02-20T12:58:54.823Z,12.25
2019-02-20T13:01:24.869Z,12.34
2019-02-20T13:03:56.262Z,12.45
2019-02-20T13:06:25.756Z,12.53
2019-02-20T13:08:56.353Z,12.66
2019-02-20T13:11:26.096Z,12.41
2019-02-20T13:13:56.326Z,12.19
2019-02-20T13:16:26.548Z,11.99
2019-02-20T13:18:58.682Z,12.09
2019-02-20T13:21:30.545Z,11.92
2019-02-20T13:24:02.074Z,11.83
2019-02-20T13:26:32.630Z,11.62
2019-02-20T13:29:02.856Z,11.66
2019-02-20T13:31:32.760Z,11.83
2019-02-20T13:34:05.904Z,11.65
2019-02-20T13:36:35.532Z,11.91
2019-02-20T13:39:06.375Z,11.89
2019-02-20T13:41:36.203Z,11.79
2019-02-20T13:44:06.048Z,11.74
2019-02-20T13:46:36.535Z,11.94
2019-02-20T13:49:06.037Z,11.94
2019-02-20T13:51:37.674Z,12.08
2019-02-20T13:54:07.167Z,12.15
2019-02-20T13:56:38.562Z,12.23
2019-02-20T13:59:09.738Z,12.19
2019-02-20T14:01:41.072Z,12.14
2019-02-20T14:04:10.558Z,12.12
2019-02-20T14:06:40.197Z,12.01
2019-02-20T14:09:09.714Z,11.97
2019-02-20T14:11:43.795Z,12.05
2019-02-20T14:14:14.482Z,11.94
2019-02-20T14:16:45.679Z,11.97
2019-02-20T14:19:15.677Z,12.05
2019-02-20T14:21:45.268Z,12.15
2019-02-20T14:24:15.805Z,12.05
2019-02-20T14:26:45.217Z,12.53
2019-02-20T14:29:14.814Z,12.82
2019-02-20T14:31:44.335Z,12.53
2019-02-20T14:34:14.107Z,12.33
2019-02-20T14:36:43.875Z,12.30
2019-02-20T14:39:13.607Z,12.21
2019-02-20T14:41:45.609Z,12.15
2019-02-20T14:44:15.543Z,12.17
2019-02-20T14:46:45.612Z,11.87
2019-02-20T14:49:16.618Z,11.87
2019-02-20T14:51:46.496Z,11.90
2019-02-20T14:54:15.934Z,11.91
2019-02-20T14:56:48.169Z,11.86
2019-02-20T14:59:17.810Z,11.80
2019-02-20T15:01:49.443Z,11.71
2019-02-20T15:04:19.900Z,11.70
2019-02-20T15:06:50.797Z,11.83
2019-02-20T15:09:22.704Z,11.71
2019-02-20T15:11:52.922Z,11.70
2019-02-20T15:14:24.375Z,11.56
2019-02-20T15:17:01.091Z,11.46
2019-02-20T15:19:31.125Z,11.47
2019-02-20T15:22:02.237Z,11.41
2019-02-20T15:24:32.664Z,11.32
2019-02-20T15:27:03.601Z,11.37
2019-02-20T15:29:33.322Z,11.30
2019-02-20T15:32:02.929Z,11.22
2019-02-20T15:34:32.526Z,11.20
2019-02-20T15:37:01.982Z,11.28
2019-02-20T15:39:32.980Z,11.35
2019-02-20T15:42:05.099Z,11.32
2019-02-20T15:44:37.596Z,11.41
2019-02-20T15:47:07.376Z,11.42
2019-02-20T15:49:37.906Z,11.54
2019-02-20T15:52:10.408Z,11.39
2019-02-20T15:54:46.180Z,11.32
2019-02-20T15:57:17.666Z,11.35
2019-02-20T15:59:52.690Z,11.25
2019-02-20T16:02:22.322Z,11.36
2019-02-20T16:04:54.599Z,11.50
2019-02-20T16:07:25.498Z,11.57
2019-02-20T16:09:57.586Z,11.61
2019-02-20T16:12:29.151Z,11.52
2019-02-20T16:15:02.035Z,11.56
2019-02-20T16:17:33.496Z,11.56
2019-02-20T16:20:03.236Z,11.31
2019-02-20T16:22:34.543Z,11.23
2019-02-20T16:25:04.073Z,11.29
2019-02-20T16:27:37.418Z,11.44
2019-02-20T16:30:07.491Z,11.55
2019-02-20T16:32:37.177Z,11.60
2019-02-20T16:35:07.822Z,11.52
2019-02-20T16:37:43.433Z,11.46
2019-02-20T16:40:16.458Z,11.52
2019-02-20T16:42:45.837Z,11.40
2019-02-20T16:45:24.519Z,11.46
2019-02-20T16:47:54.749Z,11.52
2019-02-20T16:50:24.142Z,11.48
2019-02-20T16:52:53.736Z,11.32
2019-02-20T16:55:23.326Z,11.24
2019-02-20T16:57:58.250Z,11.34
2019-02-20T17:00:30.742Z,11.32
2019-02-20T17:03:00.447Z,11.19
2019-02-20T17:05:32.636Z,11.27
2019-02-20T17:08:02.011Z,11.27
2019-02-20T17:10:38.183Z,11.33
2019-02-20T17:13:07.686Z,11.29
2019-02-20T17:15:41.361Z,11.24
2019-02-20T17:18:16.363Z,11.29
2019-02-20T17:20:45.760Z,11.36
2019-02-20T17:23:19.692Z,11.33
2019-02-20T17:25:51.670Z,11.38
2019-02-20T17:28:24.197Z,11.43
2019-02-20T17:30:55.419Z,11.51
2019-02-20T17:33:25.917Z,11.50
2019-02-20T17:35:56.837Z,11.36
2019-02-20T17:38:29.080Z,11.40
2019-02-20T17:41:03.868Z,11.38
2019-02-20T17:43:32.589Z,11.37
2019-02-20T17:46:03.688Z,11.52
2019-02-20T17:48:36.084Z,11.37
2019-02-20T17:51:06.742Z,11.36
2019-02-20T17:53:38.844Z,11.25
2019-02-20T17:56:11.059Z,11.14
2019-02-20T17:58:42.731Z,11.15
2019-02-20T18:01:16.618Z,11.27
2019-02-20T18:03:47.738Z,11.16
2019-02-20T18:06:17.127Z,11.19
2019-02-20T18:08:47.463Z,11.26
2019-02-20T18:11:17.047Z,11.34
2019-02-20T18:13:46.437Z,11.20
2019-02-20T18:16:17.312Z,11.16
2019-02-20T18:18:48.136Z,11.07
2019-02-20T18:21:18.632Z,11.17
2019-02-20T18:23:48.078Z,11.19
2019-02-20T18:26:19.787Z,11.21
2019-02-20T18:28:49.295Z,11.12
2019-02-20T18:31:18.646Z,11.17
2019-02-20T18:33:48.259Z,11.32
2019-02-20T18:36:17.803Z,11.35
2019-02-20T18:38:49.605Z,11.40
2019-02-20T18:41:21.284Z,11.43
2019-02-20T18:43:50.696Z,11.44
2019-02-20T18:46:20.075Z,11.47
2019-02-20T18:48:49.726Z,11.36
2019-02-20T18:51:19.099Z,11.46
2019-02-20T18:53:49.954Z,11.41
2019-02-20T18:56:21.757Z,11.33
2019-02-20T18:58:50.584Z,11.25
2019-02-20T19:01:21.421Z,11.23
2019-02-20T19:03:50.957Z,11.23
2019-02-20T19:06:23.273Z,11.29
2019-02-20T19:09:04.398Z,11.27
2019-02-20T19:11:56.505Z,11.21
2019-02-20T19:14:44.087Z,11.21
2019-02-20T19:18:08.208Z,11.35
2019-02-20T19:21:09.727Z,11.34
2019-02-20T19:24:10.731Z,11.19
2019-02-20T19:27:08.129Z,11.26
2019-02-20T19:30:15.906Z,11.10
2019-02-20T19:33:11.547Z,11.03
2019-02-20T19:36:22.417Z,11.23
2019-02-20T19:39:24.066Z,11.26
2019-02-20T19:42:57.999Z,11.20
2019-02-20T19:45:44.081Z,11.19
2019-02-20T19:48:44.245Z,11.05
2019-02-20T19:52:03.617Z,11.03
2019-02-20T19:54:49.183Z,11.06
2019-02-20T19:58:05.794Z,11.03
2019-02-20T20:01:21.221Z,11.02
2019-02-20T20:04:21.141Z,10.93
2019-02-20T20:07:43.886Z,10.97
2019-02-20T20:11:03.299Z,10.94
2019-02-20T20:13:47.382Z,10.91
2019-02-20T20:17:10.161Z,11.04
2019-02-20T20:19:57.168Z,11.09
2019-02-20T20:23:00.303Z,10.93
2019-02-20T20:26:21.277Z,10.91
2019-02-20T20:29:39.854Z,11.01
2019-02-20T20:32:33.613Z,11.06
2019-02-20T20:35:27.471Z,11.01
2019-02-20T20:38:21.550Z,10.97
2019-02-20T20:41:27.107Z,10.86
2019-02-20T20:44:34.694Z,10.89
2019-02-20T20:47:32.448Z,10.86
2019-02-20T20:50:38.309Z,10.98
2019-02-20T20:53:50.562Z,11.01
2019-02-20T20:56:33.946Z,10.91
2019-02-20T20:59:40.380Z,10.84
2019-02-20T21:02:46.182Z,10.87
2019-02-20T21:06:08.930Z,10.80
2019-02-20T21:08:55.649Z,10.93
2019-02-20T21:11:51.010Z,10.91
2019-02-20T21:15:13.835Z,10.90
2019-02-20T21:18:32.919Z,10.96
2019-02-20T21:21:16.737Z,10.92
2019-02-20T21:24:54.684Z,11.09
2019-02-20T21:27:44.497Z,11.02
2019-02-20T21:31:07.203Z,10.97
2019-02-20T21:34:12.235Z,11.05
2019-02-20T21:37:10.813Z,11.09
2019-02-20T21:40:16.989Z,11.05
2019-02-20T21:43:20.582Z,11.10
2019-02-20T21:46:40.303Z,11.24
2019-02-20T21:49:36.434Z,11.10
2019-02-20T21:52:31.928Z,11.08
2019-02-20T21:55:55.266Z,11.09
2019-02-20T21:59:04.165Z,11.03
2019-02-20T22:02:18.805Z,11.05
2019-02-20T22:04:54.553Z,11.02
2019-02-20T22:08:06.804Z,11.02
2019-02-20T22:11:04.380Z,10.97
2019-02-20T22:14:17.601Z,10.93
2019-02-20T22:17:11.239Z,10.97
2019-02-20T22:20:21.390Z,10.90
2019-02-20T22:23:47.186Z,10.93
2019-02-20T22:26:59.308Z,10.91
2019-02-20T22:29:50.216Z,10.92
2019-02-20T22:33:07.059Z,10.83
2019-02-20T22:36:01.767Z,10.92
2019-02-20T22:39:01.147Z,10.81
2019-02-20T22:42:10.727Z,10.91
2019-02-20T22:45:19.858Z,10.73
2019-02-20T22:48:27.932Z,10.85
2019-02-20T22:51:31.295Z,10.90
2019-02-20T22:54:24.305Z,10.77
2019-02-20T22:57:31.215Z,10.76
2019-02-20T23:00:41.118Z,10.80
2019-02-20T23:03:53.189Z,10.76
2019-02-20T23:07:04.405Z,10.80
2019-02-20T23:09:59.066Z,10.69
2019-02-20T23:12:53.155Z,10.75
2019-02-20T23:15:26.048Z,10.84
2019-02-20T23:17:55.393Z,10.76
2019-02-20T23:20:26.286Z,10.77
2019-02-20T23:22:57.115Z,10.77
2019-02-20T23:25:26.599Z,10.75
2019-02-20T23:27:57.979Z,10.75
2019-02-20T23:30:27.373Z,10.84
2019-02-20T23:32:57.962Z,10.75
2019-02-20T23:35:29.104Z,10.75
2019-02-20T23:37:58.899Z,10.83
2019-02-20T23:40:28.276Z,10.90
2019-02-20T23:42:57.899Z,10.87
2019-02-20T23:45:27.394Z,10.90
2019-02-20T23:47:56.836Z,10.90
2019-02-20T23:50:26.537Z,10.84
2019-02-20T23:52:55.939Z,10.80
2019-02-20T23:55:25.352Z,10.81
2019-02-20T23:57:55.020Z,10.81
